BAW7561 LLBG-LLER
Flight info
| Callsign | BAW7561 |
|---|---|
| Flight time | 0h 32m |
| Altitude | 60000 |
| Route | TOMAL J10 NURIT |
| Aircraft | CONC/H-SDE2E3FGHIRYW/X |
Departure
| Time | 2026-05-08 15:32 |
|---|---|
| Airport | Ben Gurion International Airport (LLBG) |
Arrival
| Time | 2026-05-08 16:05 |
|---|---|
| Airport | Ramon International Airport (LLER) |
| Time | Latitude | Longitude | Altitude | Speed | Heading |
|---|---|---|---|---|---|
| 2026-05-08 15:16 | 32.00416 | 34.87611 | 120 ft | 0 kts | 238° |
| 2026-05-08 15:20 | 32.00417 | 34.87611 | 126 ft | 0 kts | 238° |
| 2026-05-08 15:21 | 32.00425 | 34.87626 | 121 ft | 2 kts | 241° |
| 2026-05-08 15:21 | 32.00433 | 34.87643 | 121 ft | 2 kts | 241° |
| 2026-05-08 15:22 | 32.00441 | 34.87660 | 123 ft | 2 kts | 245° |
| 2026-05-08 15:22 | 32.00447 | 34.87677 | 121 ft | 2 kts | 250° |
| 2026-05-08 15:22 | 32.00448 | 34.87702 | 122 ft | 4 kts | 349° |
| 2026-05-08 15:22 | 32.00466 | 34.87700 | 123 ft | 3 kts | 349° |
| 2026-05-08 15:23 | 32.00491 | 34.87695 | 124 ft | 1 kts | 346° |
| 2026-05-08 15:24 | 32.00492 | 34.87694 | 124 ft | 1 kts | 346° |
| 2026-05-08 15:24 | 32.00531 | 34.87687 | 121 ft | 9 kts | 352° |
| 2026-05-08 15:24 | 32.00595 | 34.87710 | 124 ft | 9 kts | 28° |
| 2026-05-08 15:24 | 32.00621 | 34.87758 | 122 ft | 6 kts | 79° |
| 2026-05-08 15:25 | 32.00603 | 34.87826 | 124 ft | 8 kts | 116° |
| 2026-05-08 15:25 | 32.00577 | 34.87882 | 123 ft | 8 kts | 119° |
| 2026-05-08 15:25 | 32.00563 | 34.87911 | 123 ft | 10 kts | 122° |
| 2026-05-08 15:25 | 32.00523 | 34.87984 | 122 ft | 10 kts | 123° |
| 2026-05-08 15:26 | 32.00486 | 34.88058 | 124 ft | 11 kts | 120° |
| 2026-05-08 15:26 | 32.00440 | 34.88144 | 124 ft | 12 kts | 122° |
| 2026-05-08 15:26 | 32.00390 | 34.88240 | 124 ft | 16 kts | 121° |
| 2026-05-08 15:26 | 32.00322 | 34.88370 | 122 ft | 20 kts | 121° |
| 2026-05-08 15:27 | 32.00251 | 34.88508 | 122 ft | 20 kts | 121° |
| 2026-05-08 15:27 | 32.00178 | 34.88646 | 122 ft | 20 kts | 123° |
| 2026-05-08 15:27 | 32.00170 | 34.88723 | 121 ft | 8 kts | 53° |
| 2026-05-08 15:27 | 32.00219 | 34.88762 | 124 ft | 0 kts | 31° |
| 2026-05-08 15:28 | 32.00229 | 34.88768 | 124 ft | 6 kts | 29° |
| 2026-05-08 15:28 | 32.00298 | 34.88806 | 125 ft | 12 kts | 29° |
| 2026-05-08 15:29 | 32.00411 | 34.88883 | 122 ft | 26 kts | 31° |
| 2026-05-08 15:29 | 32.00590 | 34.89001 | 123 ft | 33 kts | 29° |
| 2026-05-08 15:29 | 32.00786 | 34.89127 | 125 ft | 30 kts | 28° |
| 2026-05-08 15:29 | 32.00961 | 34.89242 | 122 ft | 29 kts | 29° |
| 2026-05-08 15:30 | 32.01123 | 34.89348 | 122 ft | 24 kts | 29° |
| 2026-05-08 15:30 | 32.01257 | 34.89433 | 122 ft | 20 kts | 27° |
| 2026-05-08 15:30 | 32.01387 | 34.89516 | 122 ft | 26 kts | 28° |
| 2026-05-08 15:30 | 32.01563 | 34.89630 | 122 ft | 28 kts | 29° |
| 2026-05-08 15:31 | 32.01720 | 34.89728 | 122 ft | 23 kts | 26° |
| 2026-05-08 15:31 | 32.01832 | 34.89740 | 121 ft | 10 kts | 304° |
| 2026-05-08 15:31 | 32.01833 | 34.89668 | 120 ft | 10 kts | 261° |
| 2026-05-08 15:31 | 32.01811 | 34.89522 | 123 ft | 41 kts | 259° |
| 2026-05-08 15:32 | 32.01721 | 34.88897 | 128 ft | 113 kts | 259° |
| 2026-05-08 15:32 | 32.01538 | 34.87728 | 126 ft | 177 kts | 260° |
| 2026-05-08 15:32 | 32.01287 | 34.86075 | 198 ft | 231 kts | 261° |
| 2026-05-08 15:32 | 32.00342 | 34.84432 | 1002 ft | 259 kts | 212° |
| 2026-05-08 15:33 | 31.98567 | 34.83926 | 1850 ft | 275 kts | 154° |
| 2026-05-08 15:33 | 31.96938 | 34.85076 | 2820 ft | 282 kts | 142° |
| 2026-05-08 15:33 | 31.95239 | 34.86513 | 3081 ft | 312 kts | 139° |
| 2026-05-08 15:33 | 31.93834 | 34.88438 | 2001 ft | 320 kts | 110° |
| 2026-05-08 15:34 | 31.93437 | 34.91018 | 1347 ft | 318 kts | 82° |
| 2026-05-08 15:34 | 31.93561 | 34.93428 | 2092 ft | 274 kts | 84° |
| 2026-05-08 15:34 | 31.93587 | 34.95628 | 2661 ft | 284 kts | 90° |
| 2026-05-08 15:34 | 31.93358 | 34.98125 | 2988 ft | 328 kts | 98° |
| 2026-05-08 15:35 | 31.92636 | 35.00847 | 3337 ft | 372 kts | 111° |
| 2026-05-08 15:35 | 31.91548 | 35.03782 | 3826 ft | 405 kts | 113° |
| 2026-05-08 15:35 | 31.90379 | 35.06836 | 4974 ft | 415 kts | 115° |
| 2026-05-08 15:35 | 31.89150 | 35.09987 | 6058 ft | 428 kts | 116° |
| 2026-05-08 15:36 | 31.87896 | 35.13190 | 7027 ft | 435 kts | 116° |
| 2026-05-08 15:36 | 31.87055 | 35.15344 | 7513 ft | 441 kts | 117° |
| 2026-05-08 15:36 | 31.85322 | 35.19798 | 8520 ft | 461 kts | 116° |
| 2026-05-08 15:36 | 31.83990 | 35.23243 | 9273 ft | 444 kts | 116° |
| 2026-05-08 15:37 | 31.82776 | 35.26388 | 10015 ft | 402 kts | 117° |
| 2026-05-08 15:37 | 31.81621 | 35.29344 | 10729 ft | 409 kts | 117° |
| 2026-05-08 15:37 | 31.80380 | 35.32500 | 11472 ft | 441 kts | 116° |
| 2026-05-08 15:37 | 31.79053 | 35.35900 | 12245 ft | 472 kts | 116° |
| 2026-05-08 15:38 | 31.77659 | 35.39491 | 13007 ft | 484 kts | 115° |
| 2026-05-08 15:38 | 31.76261 | 35.43079 | 13783 ft | 493 kts | 115° |
| 2026-05-08 15:38 | 31.74618 | 35.46631 | 14510 ft | 497 kts | 129° |
| 2026-05-08 15:38 | 31.72114 | 35.49456 | 15325 ft | 499 kts | 149° |
| 2026-05-08 15:39 | 31.68935 | 35.51172 | 16178 ft | 504 kts | 168° |
| 2026-05-08 15:39 | 31.65450 | 35.51589 | 17064 ft | 507 kts | 187° |
| 2026-05-08 15:39 | 31.62010 | 35.50670 | 17990 ft | 511 kts | 206° |
| 2026-05-08 15:39 | 31.58794 | 35.48813 | 18604 ft | 523 kts | 210° |
| 2026-05-08 15:40 | 31.55534 | 35.46839 | 18838 ft | 529 kts | 208° |
| 2026-05-08 15:40 | 31.52176 | 35.45038 | 18931 ft | 532 kts | 204° |
| 2026-05-08 15:40 | 31.48721 | 35.43436 | 18969 ft | 534 kts | 202° |
| 2026-05-08 15:40 | 31.45212 | 35.41990 | 18980 ft | 536 kts | 197° |
| 2026-05-08 15:41 | 31.41574 | 35.41043 | 19002 ft | 537 kts | 193° |
| 2026-05-08 15:41 | 31.37891 | 35.40201 | 19004 ft | 538 kts | 193° |
| 2026-05-08 15:41 | 31.34218 | 35.39387 | 19001 ft | 538 kts | 190° |
| 2026-05-08 15:41 | 31.31707 | 35.39015 | 19005 ft | 539 kts | 187° |
| 2026-05-08 15:42 | 31.27972 | 35.38603 | 19002 ft | 539 kts | 187° |
| 2026-05-08 15:42 | 31.24228 | 35.38213 | 19000 ft | 539 kts | 186° |
| 2026-05-08 15:42 | 31.20535 | 35.37831 | 19001 ft | 540 kts | 187° |
| 2026-05-08 15:42 | 31.16795 | 35.37437 | 18994 ft | 540 kts | 186° |
| 2026-05-08 15:43 | 31.13055 | 35.37055 | 18991 ft | 540 kts | 186° |
| 2026-05-08 15:43 | 31.09300 | 35.36670 | 18496 ft | 542 kts | 186° |
| 2026-05-08 15:43 | 31.05568 | 35.36286 | 17946 ft | 535 kts | 186° |
| 2026-05-08 15:43 | 31.01880 | 35.35908 | 17328 ft | 530 kts | 186° |
| 2026-05-08 15:44 | 30.98220 | 35.35528 | 16728 ft | 524 kts | 188° |
| 2026-05-08 15:44 | 30.94669 | 35.34749 | 16200 ft | 517 kts | 196° |
| 2026-05-08 15:44 | 30.91249 | 35.33520 | 15689 ft | 511 kts | 203° |
| 2026-05-08 15:44 | 30.87964 | 35.31975 | 15173 ft | 507 kts | 204° |
| 2026-05-08 15:45 | 30.84691 | 35.30375 | 14651 ft | 502 kts | 205° |
| 2026-05-08 15:45 | 30.81488 | 35.28786 | 14089 ft | 497 kts | 205° |
| 2026-05-08 15:45 | 30.78315 | 35.27214 | 13341 ft | 496 kts | 204° |
| 2026-05-08 15:45 | 30.75175 | 35.25665 | 13093 ft | 483 kts | 204° |
| 2026-05-08 15:46 | 30.72125 | 35.24166 | 13035 ft | 468 kts | 204° |
| 2026-05-08 15:46 | 30.69203 | 35.22731 | 12998 ft | 443 kts | 204° |
| 2026-05-08 15:46 | 30.66411 | 35.21357 | 12469 ft | 432 kts | 204° |
| 2026-05-08 15:46 | 30.63657 | 35.19998 | 11705 ft | 428 kts | 203° |
| 2026-05-08 15:47 | 30.60945 | 35.18669 | 11296 ft | 417 kts | 203° |
| 2026-05-08 15:47 | 30.58303 | 35.17452 | 11135 ft | 400 kts | 199° |
| 2026-05-08 15:47 | 30.55717 | 35.16478 | 11062 ft | 382 kts | 197° |
| 2026-05-08 15:47 | 30.53201 | 35.15712 | 11026 ft | 365 kts | 192° |
| 2026-05-08 15:48 | 30.48414 | 35.14723 | 11000 ft | 334 kts | 189° |
| 2026-05-08 15:48 | 30.46146 | 35.14298 | 10984 ft | 319 kts | 189° |
| 2026-05-08 15:48 | 30.43998 | 35.13894 | 10983 ft | 305 kts | 189° |
| 2026-05-08 15:49 | 30.41955 | 35.13504 | 10981 ft | 290 kts | 190° |
| 2026-05-08 15:49 | 30.40002 | 35.13127 | 10938 ft | 283 kts | 190° |
| 2026-05-08 15:49 | 30.38002 | 35.12738 | 10245 ft | 299 kts | 189° |
| 2026-05-08 15:49 | 30.35941 | 35.12329 | 9890 ft | 297 kts | 189° |
| 2026-05-08 15:50 | 30.33917 | 35.11938 | 9633 ft | 294 kts | 188° |
| 2026-05-08 15:50 | 30.31893 | 35.11563 | 9294 ft | 294 kts | 188° |
| 2026-05-08 15:50 | 30.29882 | 35.11192 | 8963 ft | 293 kts | 188° |
| 2026-05-08 15:50 | 30.27869 | 35.10817 | 8614 ft | 292 kts | 188° |
| 2026-05-08 15:51 | 30.25868 | 35.10430 | 8266 ft | 291 kts | 189° |
| 2026-05-08 15:51 | 30.23868 | 35.10032 | 7890 ft | 291 kts | 188° |
| 2026-05-08 15:51 | 30.21876 | 35.09680 | 7516 ft | 290 kts | 187° |
| 2026-05-08 15:51 | 30.19872 | 35.09344 | 7103 ft | 291 kts | 187° |
| 2026-05-08 15:52 | 30.17874 | 35.09012 | 6728 ft | 289 kts | 187° |
| 2026-05-08 15:52 | 30.15890 | 35.08645 | 6307 ft | 289 kts | 191° |
| 2026-05-08 15:52 | 30.13927 | 35.08121 | 6067 ft | 284 kts | 193° |
| 2026-05-08 15:52 | 30.12050 | 35.07553 | 6007 ft | 273 kts | 194° |
| 2026-05-08 15:53 | 30.10220 | 35.06974 | 5995 ft | 272 kts | 194° |
| 2026-05-08 15:53 | 30.08369 | 35.06379 | 5994 ft | 273 kts | 195° |
| 2026-05-08 15:53 | 30.06543 | 35.05789 | 5977 ft | 272 kts | 194° |
| 2026-05-08 15:53 | 30.04710 | 35.05232 | 5974 ft | 272 kts | 193° |
| 2026-05-08 15:54 | 30.02870 | 35.04719 | 5970 ft | 272 kts | 192° |
| 2026-05-08 15:54 | 30.01018 | 35.04193 | 5660 ft | 281 kts | 194° |
| 2026-05-08 15:54 | 29.99091 | 35.03691 | 5247 ft | 284 kts | 187° |
| 2026-05-08 15:54 | 29.97153 | 35.03444 | 5105 ft | 277 kts | 184° |
| 2026-05-08 15:55 | 29.95263 | 35.03295 | 5028 ft | 267 kts | 183° |
| 2026-05-08 15:55 | 29.91537 | 35.02962 | 4462 ft | 272 kts | 195° |
| 2026-05-08 15:55 | 29.89717 | 35.02365 | 4091 ft | 274 kts | 198° |
| 2026-05-08 15:56 | 29.87930 | 35.01674 | 4033 ft | 265 kts | 200° |
| 2026-05-08 15:56 | 29.86173 | 35.00966 | 3701 ft | 267 kts | 201° |
| 2026-05-08 15:56 | 29.84420 | 35.00250 | 3465 ft | 266 kts | 200° |
| 2026-05-08 15:56 | 29.82683 | 34.99531 | 3271 ft | 264 kts | 201° |
| 2026-05-08 15:57 | 29.80958 | 34.98830 | 3138 ft | 262 kts | 200° |
| 2026-05-08 15:57 | 29.79255 | 34.98130 | 3037 ft | 260 kts | 200° |
| 2026-05-08 15:57 | 29.77552 | 34.97411 | 3027 ft | 264 kts | 201° |
| 2026-05-08 15:57 | 29.75806 | 34.96670 | 2894 ft | 264 kts | 201° |
| 2026-05-08 15:58 | 29.74110 | 34.95951 | 2952 ft | 259 kts | 200° |
| 2026-05-08 15:58 | 29.72424 | 34.95226 | 2934 ft | 262 kts | 201° |
| 2026-05-08 15:58 | 29.70713 | 34.94497 | 2958 ft | 262 kts | 201° |
| 2026-05-08 15:58 | 29.69005 | 34.93779 | 2945 ft | 259 kts | 200° |
| 2026-05-08 15:59 | 29.67281 | 34.93066 | 2970 ft | 263 kts | 198° |
| 2026-05-08 15:59 | 29.65551 | 34.92462 | 2960 ft | 258 kts | 196° |
| 2026-05-08 15:59 | 29.63676 | 34.91875 | 2876 ft | 264 kts | 195° |
| 2026-05-08 15:59 | 29.62047 | 34.91397 | 2926 ft | 259 kts | 191° |
| 2026-05-08 16:00 | 29.60264 | 34.91075 | 2872 ft | 259 kts | 187° |
| 2026-05-08 16:00 | 29.58496 | 34.90870 | 2908 ft | 249 kts | 185° |
| 2026-05-08 16:00 | 29.56819 | 34.90826 | 2832 ft | 237 kts | 161° |
| 2026-05-08 16:00 | 29.55452 | 34.91772 | 2575 ft | 235 kts | 117° |
| 2026-05-08 16:01 | 29.54999 | 34.93478 | 2835 ft | 220 kts | 75° |
| 2026-05-08 16:01 | 29.55620 | 34.95027 | 3062 ft | 217 kts | 34° |
| 2026-05-08 16:01 | 29.56920 | 34.95900 | 3122 ft | 218 kts | 19° |
| 2026-05-08 16:01 | 29.58341 | 34.96515 | 3059 ft | 218 kts | 16° |
| 2026-05-08 16:02 | 29.59799 | 34.97061 | 2581 ft | 224 kts | 14° |
| 2026-05-08 16:02 | 29.61263 | 34.97579 | 2284 ft | 218 kts | 14° |
| 2026-05-08 16:02 | 29.62590 | 34.98361 | 2140 ft | 211 kts | 36° |
| 2026-05-08 16:02 | 29.63602 | 34.99417 | 2256 ft | 182 kts | 31° |
| 2026-05-08 16:03 | 29.64754 | 35.00129 | 1063 ft | 216 kts | 9° |
| 2026-05-08 16:03 | 29.66360 | 35.00117 | 1125 ft | 235 kts | 352° |
| 2026-05-08 16:03 | 29.67942 | 35.00088 | 930 ft | 221 kts | 8° |
| 2026-05-08 16:03 | 29.69420 | 35.00521 | 647 ft | 212 kts | 13° |
| 2026-05-08 16:04 | 29.70838 | 35.00883 | 359 ft | 202 kts | 14° |
| 2026-05-08 16:04 | 29.72122 | 35.01267 | 310 ft | 181 kts | 13° |
| 2026-05-08 16:04 | 29.73195 | 35.01547 | 305 ft | 134 kts | 14° |
| 2026-05-08 16:04 | 29.73941 | 35.01752 | 306 ft | 84 kts | 12° |
| 2026-05-08 16:05 | 29.74254 | 35.01824 | 307 ft | 26 kts | 353° |
| 2026-05-08 16:05 | 29.74311 | 35.01717 | 307 ft | 14 kts | 281° |
| 2026-05-08 16:05 | 29.74275 | 35.01632 | 305 ft | 11 kts | 208° |
| 2026-05-08 16:05 | 29.74167 | 35.01594 | 304 ft | 17 kts | 194° |
| 2026-05-08 16:06 | 29.74017 | 35.01552 | 306 ft | 22 kts | 193° |
| 2026-05-08 16:06 | 29.73860 | 35.01507 | 305 ft | 25 kts | 193° |
| 2026-05-08 16:06 | 29.73675 | 35.01455 | 304 ft | 29 kts | 194° |
| 2026-05-08 16:06 | 29.73534 | 35.01415 | 307 ft | 32 kts | 194° |
| 2026-05-08 16:07 | 29.73377 | 35.01295 | 307 ft | 12 kts | 279° |
| 2026-05-08 16:07 | 29.73396 | 35.01168 | 306 ft | 14 kts | 266° |
| 2026-05-08 16:07 | 29.73349 | 35.01119 | 306 ft | 10 kts | 198° |
| 2026-05-08 16:07 | 29.73234 | 35.01086 | 305 ft | 20 kts | 193° |
| 2026-05-08 16:08 | 29.73106 | 35.01051 | 305 ft | 18 kts | 193° |
| 2026-05-08 16:08 | 29.73020 | 35.01026 | 304 ft | 19 kts | 194° |
| 2026-05-08 16:08 | 29.72887 | 35.00992 | 308 ft | 20 kts | 188° |
| 2026-05-08 16:08 | 29.72758 | 35.00962 | 305 ft | 17 kts | 195° |
| 2026-05-08 16:09 | 29.72659 | 35.00931 | 305 ft | 13 kts | 192° |
| 2026-05-08 16:09 | 29.72570 | 35.00906 | 305 ft | 14 kts | 193° |
| 2026-05-08 16:09 | 29.72441 | 35.00877 | 304 ft | 26 kts | 191° |
| 2026-05-08 16:09 | 29.72279 | 35.00834 | 306 ft | 22 kts | 196° |
| 2026-05-08 16:10 | 29.72174 | 35.00806 | 305 ft | 10 kts | 191° |
| 2026-05-08 16:10 | 29.72143 | 35.00807 | 305 ft | 0 kts | 162° |
| 2026-05-08 16:10 | 29.72134 | 35.00817 | 307 ft | 0 kts | 135° |
| 2026-05-08 16:10 | 29.72135 | 35.00821 | 307 ft | 1 kts | 121° |
| 2026-05-08 16:11 | 29.72130 | 35.00843 | 306 ft | 4 kts | 107° |
| 2026-05-08 16:11 | 29.72128 | 35.00852 | 306 ft | 0 kts | 104° |
| 2026-05-08 16:11 | 29.72127 | 35.00856 | 305 ft | 0 kts | 104° |